createdAt,value
2023-07-23T00:00:39.313Z,16.22
2023-07-23T00:05:40.166Z,16.16
2023-07-23T00:10:40.983Z,15.98
2023-07-23T00:15:41.795Z,15.93
2023-07-23T00:20:42.603Z,15.92
2023-07-23T00:25:43.575Z,15.99
2023-07-23T00:30:44.355Z,15.97
2023-07-23T00:35:45.606Z,15.89
2023-07-23T00:40:46.413Z,15.91
2023-07-23T00:45:47.705Z,15.82
2023-07-23T00:50:48.720Z,15.70
2023-07-23T00:55:49.734Z,15.61
2023-07-23T01:00:50.956Z,15.49
2023-07-23T01:05:57.245Z,15.54
2023-07-23T01:10:58.741Z,15.39
2023-07-23T01:16:00.301Z,15.48
2023-07-23T01:21:01.298Z,15.24
2023-07-23T01:26:02.454Z,15.12
2023-07-23T01:31:03.493Z,14.93
2023-07-23T01:36:05.735Z,14.85
2023-07-23T01:41:06.602Z,14.74
2023-07-23T01:46:07.465Z,14.71
2023-07-23T01:51:09.904Z,14.60
2023-07-23T01:56:10.889Z,14.54
2023-07-23T02:01:11.952Z,14.54
2023-07-23T02:06:12.844Z,14.52
2023-07-23T02:11:13.763Z,14.50
2023-07-23T02:16:18.637Z,14.56
2023-07-23T02:21:19.733Z,14.55
2023-07-23T02:26:20.967Z,14.52
2023-07-23T02:31:21.843Z,14.41
2023-07-23T02:36:22.682Z,14.29
2023-07-23T02:41:23.726Z,14.31
2023-07-23T02:46:24.641Z,14.24
2023-07-23T02:51:25.553Z,14.20
2023-07-23T02:56:26.530Z,14.14
2023-07-23T03:01:27.722Z,14.05
2023-07-23T03:06:29.044Z,13.98
2023-07-23T03:11:30.277Z,14.00
2023-07-23T03:16:31.348Z,14.04
2023-07-23T03:21:32.143Z,14.08
2023-07-23T03:26:33.103Z,14.02
2023-07-23T03:31:33.944Z,13.86
2023-07-23T03:36:34.853Z,13.90
2023-07-23T03:41:35.629Z,14.33
2023-07-23T03:47:10.828Z,14.38
2023-07-23T03:52:12.200Z,14.45
2023-07-23T03:57:13.250Z,14.29
2023-07-23T04:02:14.131Z,14.27
2023-07-23T04:07:15.166Z,14.29
2023-07-23T04:12:15.940Z,14.28
2023-07-23T04:17:18.201Z,14.30
2023-07-23T04:22:19.885Z,14.44
2023-07-23T04:27:20.843Z,14.45
2023-07-23T04:32:21.766Z,14.60
2023-07-23T04:37:22.618Z,14.70
2023-07-23T04:42:23.516Z,14.88
2023-07-23T04:47:24.309Z,15.11
2023-07-23T04:52:25.134Z,15.38
2023-07-23T04:57:26.098Z,15.66
2023-07-23T05:02:26.922Z,15.89
2023-07-23T05:07:27.732Z,15.94
2023-07-23T05:12:28.728Z,15.90
2023-07-23T05:17:29.533Z,15.85
2023-07-23T05:22:33.111Z,15.89
2023-07-23T05:27:35.477Z,16.04
2023-07-23T05:32:36.319Z,15.98
2023-07-23T05:37:37.166Z,15.93
2023-07-23T05:42:37.938Z,15.89
2023-07-23T05:47:38.882Z,15.95
2023-07-23T05:52:39.704Z,16.13
2023-07-23T05:57:40.785Z,15.96
2023-07-23T06:02:41.627Z,15.92
2023-07-23T06:07:42.502Z,15.82
2023-07-23T06:12:43.274Z,15.73
2023-07-23T06:17:44.208Z,15.68
2023-07-23T06:22:45.076Z,15.66
2023-07-23T06:27:46.077Z,15.55
2023-07-23T06:32:46.894Z,15.63
2023-07-23T06:37:47.760Z,15.59
2023-07-23T06:42:49.263Z,15.63
2023-07-23T06:47:50.122Z,15.63
2023-07-23T06:52:51.006Z,15.67
2023-07-23T06:57:51.957Z,15.65
2023-07-23T07:02:52.755Z,15.68
2023-07-23T07:07:53.534Z,15.67
2023-07-23T07:12:54.358Z,15.83
2023-07-23T07:17:55.172Z,15.95
2023-07-23T07:22:56.026Z,16.09
2023-07-23T07:27:57.394Z,16.02
2023-07-23T07:32:58.229Z,16.25
2023-07-23T07:37:59.000Z,16.22
2023-07-23T07:42:59.874Z,16.35
2023-07-23T07:48:00.921Z,16.49
2023-07-23T07:53:01.923Z,16.66
2023-07-23T07:58:03.557Z,16.91
2023-07-23T08:03:05.159Z,17.06
2023-07-23T08:08:07.515Z,17.06
2023-07-23T08:13:10.051Z,17.18
2023-07-23T08:18:11.173Z,17.37
2023-07-23T08:23:12.815Z,17.44
2023-07-23T08:28:22.546Z,17.63
2023-07-23T08:33:28.282Z,17.94
2023-07-23T08:38:29.574Z,18.02
2023-07-23T08:44:04.957Z,18.10
2023-07-23T08:49:06.385Z,18.33
2023-07-23T08:54:08.697Z,18.42
2023-07-23T08:59:10.203Z,18.43
2023-07-23T09:04:12.655Z,18.59
2023-07-23T09:09:14.571Z,18.82
2023-07-23T09:14:16.859Z,18.73
2023-07-23T09:19:29.802Z,18.73
2023-07-23T09:24:32.611Z,18.68
2023-07-23T09:29:38.787Z,18.72
2023-07-23T09:34:46.046Z,19.02
2023-07-23T09:39:47.246Z,19.17
2023-07-23T09:44:48.129Z,19.38
2023-07-23T09:49:50.686Z,19.49
2023-07-23T09:54:53.492Z,19.70
2023-07-23T09:59:57.716Z,19.70
2023-07-23T10:05:00.801Z,19.86
2023-07-23T10:10:01.867Z,20.28
2023-07-23T10:15:05.328Z,20.52
2023-07-23T10:20:12.140Z,20.58
2023-07-23T10:26:47.113Z,21.01
2023-07-23T10:31:48.064Z,21.02
2023-07-23T10:37:21.768Z,20.88
2023-07-23T10:42:43.576Z,21.05
2023-07-23T10:47:55.864Z,21.40
2023-07-23T10:53:15.969Z,21.57
2023-07-23T10:58:21.699Z,21.79
2023-07-23T11:03:24.588Z,21.79
2023-07-23T11:08:28.520Z,21.77
2023-07-23T11:13:32.864Z,21.84
2023-07-23T11:18:34.555Z,21.72
2023-07-23T11:23:35.951Z,21.70
2023-07-23T11:28:37.700Z,21.83
2023-07-23T11:33:38.608Z,21.85
2023-07-23T11:38:39.458Z,21.54
2023-07-23T11:43:41.676Z,21.57
2023-07-23T11:48:42.506Z,21.87
2023-07-23T11:53:43.348Z,21.71
2023-07-23T11:58:44.214Z,21.52
2023-07-23T12:03:46.765Z,21.57
2023-07-23T12:08:47.734Z,21.73
2023-07-23T12:13:56.851Z,21.66
2023-07-23T12:19:08.729Z,21.74
2023-07-23T12:24:27.119Z,21.95
2023-07-23T12:29:28.657Z,21.71
2023-07-23T12:34:30.130Z,22.15
2023-07-23T12:39:31.173Z,22.43
2023-07-23T12:44:32.026Z,22.48
2023-07-23T12:49:32.898Z,22.51
2023-07-23T12:54:34.677Z,22.98
2023-07-23T12:59:35.646Z,23.28
2023-07-23T13:04:43.864Z,22.81
2023-07-23T13:09:44.681Z,23.09
2023-07-23T13:14:45.493Z,23.21
2023-07-23T13:19:46.298Z,23.07
2023-07-23T13:24:47.122Z,23.68
2023-07-23T13:29:48.311Z,23.31
2023-07-23T13:34:50.176Z,23.11
2023-07-23T13:39:51.025Z,23.70
2023-07-23T13:44:51.821Z,23.86
2023-07-23T13:49:52.786Z,24.15
2023-07-23T13:54:53.970Z,24.45
2023-07-23T13:59:56.315Z,24.74
2023-07-23T14:04:58.991Z,24.45
2023-07-23T14:09:59.723Z,23.99
2023-07-23T14:15:01.182Z,23.11
2023-07-23T14:20:04.992Z,22.87
2023-07-23T14:25:06.386Z,22.51
2023-07-23T14:30:08.261Z,22.41
2023-07-23T14:35:09.982Z,22.42
2023-07-23T14:40:11.579Z,22.19
2023-07-23T14:45:12.892Z,22.44
2023-07-23T14:50:13.672Z,22.79
2023-07-23T14:55:14.890Z,23.30
2023-07-23T15:00:15.996Z,23.51
2023-07-23T15:05:17.464Z,23.22
2023-07-23T15:10:19.374Z,23.10
2023-07-23T15:15:22.937Z,22.79
2023-07-23T15:20:24.260Z,22.76
2023-07-23T15:25:26.053Z,21.80
2023-07-23T15:30:26.978Z,21.04
2023-07-23T15:35:29.252Z,20.95
2023-07-23T15:40:30.128Z,21.02
2023-07-23T15:45:30.945Z,21.08
2023-07-23T15:50:31.741Z,21.43
2023-07-23T15:55:32.654Z,21.87
2023-07-23T16:00:33.498Z,22.37
2023-07-23T16:05:34.446Z,22.91
2023-07-23T16:10:35.275Z,22.95
2023-07-23T16:15:36.198Z,23.00
2023-07-23T16:20:37.016Z,23.05
2023-07-23T16:25:38.057Z,22.91
2023-07-23T16:30:38.858Z,22.76
2023-07-23T16:35:40.631Z,22.23
2023-07-23T16:40:45.015Z,21.74
2023-07-23T16:45:46.592Z,21.59
2023-07-23T16:50:47.528Z,21.55
2023-07-23T16:55:48.562Z,21.64
2023-07-23T17:00:49.378Z,21.67
2023-07-23T17:05:50.358Z,21.47
2023-07-23T17:10:54.307Z,21.41
2023-07-23T17:15:55.123Z,21.43
2023-07-23T17:20:55.941Z,21.46
2023-07-23T17:25:56.725Z,21.24
2023-07-23T17:30:59.856Z,21.21
2023-07-23T17:36:01.024Z,20.98
2023-07-23T17:41:01.912Z,21.07
2023-07-23T17:46:02.731Z,21.01
2023-07-23T17:51:03.717Z,20.81
2023-07-23T17:56:05.332Z,20.56
2023-07-23T18:01:19.711Z,20.49
2023-07-23T18:06:25.480Z,20.52
2023-07-23T18:11:27.081Z,20.52
2023-07-23T18:16:28.468Z,20.62
2023-07-23T18:21:29.532Z,20.64
2023-07-23T18:26:30.651Z,20.63
2023-07-23T18:31:35.945Z,20.59
2023-07-23T18:36:39.234Z,20.64
2023-07-23T18:41:40.376Z,20.55
2023-07-23T18:46:41.478Z,20.61
2023-07-23T18:51:42.359Z,20.52
2023-07-23T18:56:43.205Z,20.62
2023-07-23T19:01:44.073Z,20.54
2023-07-23T19:06:45.511Z,20.46
2023-07-23T19:11:46.344Z,20.40
2023-07-23T19:16:47.315Z,20.33
2023-07-23T19:21:48.104Z,20.44
2023-07-23T19:26:48.951Z,20.29
2023-07-23T19:31:49.747Z,20.37
2023-07-23T19:36:50.820Z,20.22
2023-07-23T19:41:52.220Z,20.17
2023-07-23T19:46:53.055Z,20.16
2023-07-23T19:51:53.824Z,20.15
2023-07-23T19:56:54.838Z,20.08
2023-07-23T20:01:56.900Z,19.95
2023-07-23T20:06:57.863Z,19.78
2023-07-23T20:12:01.047Z,19.68
2023-07-23T20:17:01.876Z,19.62
2023-07-23T20:22:02.939Z,19.53
2023-07-23T20:27:07.914Z,19.52
2023-07-23T20:32:10.231Z,19.63
2023-07-23T20:37:13.919Z,19.64
2023-07-23T20:42:15.143Z,19.60
2023-07-23T20:47:16.093Z,19.48
2023-07-23T20:52:16.935Z,19.49
2023-07-23T20:57:17.754Z,19.46
2023-07-23T21:02:18.534Z,19.48
2023-07-23T21:07:19.417Z,19.32
2023-07-23T21:12:20.399Z,19.20
2023-07-23T21:17:22.218Z,19.05
2023-07-23T21:22:23.086Z,19.00
2023-07-23T21:27:23.932Z,18.94
2023-07-23T21:32:24.820Z,18.92
2023-07-23T21:37:30.319Z,18.83
2023-07-23T21:42:31.138Z,18.73
2023-07-23T21:47:32.055Z,18.87
2023-07-23T21:52:32.873Z,18.90
2023-07-23T21:57:33.706Z,18.75
2023-07-23T22:02:34.881Z,18.77
2023-07-23T22:07:35.945Z,18.66
2023-07-23T22:12:36.741Z,18.82
2023-07-23T22:17:37.878Z,18.75
2023-07-23T22:22:38.747Z,18.81
2023-07-23T22:27:39.624Z,18.93
2023-07-23T22:32:40.604Z,18.90
2023-07-23T22:37:41.529Z,18.85
2023-07-23T22:42:42.702Z,18.87
2023-07-23T22:47:45.125Z,18.82
2023-07-23T22:52:46.045Z,18.92
2023-07-23T22:57:49.086Z,18.83
2023-07-23T23:02:50.831Z,18.79
2023-07-23T23:07:51.804Z,18.53
2023-07-23T23:12:52.639Z,18.55
2023-07-23T23:17:53.572Z,18.56
2023-07-23T23:22:54.478Z,18.55
2023-07-23T23:27:55.269Z,18.55
2023-07-23T23:32:56.161Z,18.56
2023-07-23T23:37:57.074Z,18.48
2023-07-23T23:42:58.084Z,18.57
2023-07-23T23:47:58.935Z,18.46
2023-07-23T23:52:59.791Z,18.43
2023-07-23T23:58:01.049Z,18.38
